createdAt,value
2018-03-26T00:01:58.600Z,24.13
2018-03-26T00:04:26.159Z,22.60
2018-03-26T00:06:53.741Z,22.23
2018-03-26T00:09:22.091Z,23.87
2018-03-26T00:11:49.645Z,23.27
2018-03-26T00:14:17.240Z,23.23
2018-03-26T00:16:44.806Z,22.87
2018-03-26T00:19:12.383Z,24.20
2018-03-26T00:21:39.979Z,24.50
2018-03-26T00:24:07.532Z,23.43
2018-03-26T00:26:35.114Z,23.40
2018-03-26T00:29:02.707Z,23.10
2018-03-26T00:31:30.278Z,23.00
2018-03-26T00:33:57.865Z,22.47
2018-03-26T00:36:26.229Z,21.83
2018-03-26T00:38:53.786Z,22.50
2018-03-26T00:41:21.344Z,23.23
2018-03-26T00:43:48.937Z,21.70
2018-03-26T00:46:17.277Z,22.80
2018-03-26T00:48:44.893Z,22.73
2018-03-26T00:51:12.515Z,24.23
2018-03-26T00:53:44.009Z,22.57
2018-03-26T00:56:11.671Z,23.00
2018-03-26T00:58:39.258Z,24.37
2018-03-26T01:01:06.827Z,23.33
2018-03-26T01:03:34.463Z,23.10
2018-03-26T01:06:02.048Z,23.10
2018-03-26T01:08:29.622Z,23.97
2018-03-26T01:10:57.195Z,23.37
2018-03-26T01:13:25.557Z,25.37
2018-03-26T01:15:53.124Z,22.90
2018-03-26T01:18:20.719Z,24.27
2018-03-26T01:20:49.067Z,22.93
2018-03-26T01:23:17.428Z,23.37
2018-03-26T01:25:45.012Z,22.67
2018-03-26T01:28:12.633Z,24.53
2018-03-26T01:30:40.227Z,23.07
2018-03-26T01:33:07.806Z,24.23
2018-03-26T01:35:36.131Z,23.70
2018-03-26T01:38:03.718Z,23.50
2018-03-26T01:40:31.308Z,24.60
2018-03-26T01:42:59.640Z,24.30
2018-03-26T01:45:27.220Z,23.07
2018-03-26T01:47:54.827Z,23.80
2018-03-26T01:50:22.428Z,23.13
2018-03-26T01:52:49.992Z,24.80
2018-03-26T01:55:17.592Z,23.20
2018-03-26T01:57:45.926Z,24.10
2018-03-26T02:00:14.249Z,23.13
2018-03-26T02:02:41.852Z,23.43
2018-03-26T02:05:09.433Z,23.10
2018-03-26T02:07:37.001Z,22.90
2018-03-26T02:10:04.621Z,23.20
2018-03-26T02:12:32.183Z,24.53
2018-03-26T02:14:59.756Z,22.30
2018-03-26T02:17:27.359Z,21.70
2018-03-26T02:19:54.959Z,23.07
2018-03-26T02:22:22.526Z,23.87
2018-03-26T02:24:50.096Z,23.47
2018-03-26T02:27:17.684Z,24.10
2018-03-26T02:29:45.247Z,22.27
2018-03-26T02:32:12.841Z,22.60
2018-03-26T02:34:41.163Z,24.00
2018-03-26T02:37:10.744Z,22.77
2018-03-26T02:39:38.345Z,22.43
2018-03-26T02:42:06.682Z,24.53
2018-03-26T02:44:34.243Z,22.17
2018-03-26T02:47:02.643Z,25.00
2018-03-26T02:49:30.214Z,23.33
2018-03-26T02:51:57.822Z,22.33
2018-03-26T02:54:25.412Z,23.57
2018-03-26T02:56:52.963Z,24.13
2018-03-26T02:59:21.276Z,22.90
2018-03-26T03:01:48.881Z,24.50
2018-03-26T03:04:17.210Z,22.17
2018-03-26T03:06:44.782Z,22.23
2018-03-26T03:09:12.413Z,22.40
2018-03-26T03:11:39.998Z,22.43
2018-03-26T03:14:07.556Z,22.50
2018-03-26T03:16:35.144Z,22.63
2018-03-26T03:19:02.985Z,22.37
2018-03-26T03:21:30.562Z,23.67
2018-03-26T03:23:58.160Z,23.00
2018-03-26T03:26:26.488Z,23.37
2018-03-26T03:28:54.045Z,21.93
2018-03-26T03:31:21.729Z,24.30
2018-03-26T03:33:49.250Z,22.23
2018-03-26T03:36:16.832Z,20.47
2018-03-26T03:38:45.185Z,22.23
2018-03-26T03:41:12.766Z,24.10
2018-03-26T03:43:40.345Z,22.90
2018-03-26T03:46:07.937Z,22.70
2018-03-26T03:48:36.273Z,25.20
2018-03-26T03:51:03.849Z,22.90
2018-03-26T03:53:31.427Z,21.77
2018-03-26T03:55:58.984Z,22.83
2018-03-26T03:58:26.563Z,24.00
2018-03-26T04:00:54.178Z,23.37
2018-03-26T04:03:21.751Z,24.03
2018-03-26T04:05:49.321Z,21.50
2018-03-26T04:08:16.921Z,23.73
2018-03-26T04:10:45.361Z,22.77
2018-03-26T04:13:12.924Z,23.20
2018-03-26T04:15:40.514Z,22.93
2018-03-26T04:18:08.841Z,23.70
2018-03-26T04:20:36.419Z,22.37
2018-03-26T04:23:04.040Z,23.60
2018-03-26T04:25:31.606Z,22.23
2018-03-26T04:27:59.164Z,21.80
2018-03-26T04:30:26.755Z,20.67
2018-03-26T04:32:54.330Z,23.73
2018-03-26T04:35:21.894Z,21.57
2018-03-26T04:37:49.476Z,22.50
2018-03-26T04:40:17.819Z,22.97
2018-03-26T04:42:46.300Z,22.13
2018-03-26T04:45:13.904Z,23.53
2018-03-26T04:47:41.461Z,23.70
2018-03-26T04:50:09.024Z,23.50
2018-03-26T04:52:36.629Z,24.07
2018-03-26T04:55:04.183Z,23.43
2018-03-26T04:57:31.777Z,23.33
2018-03-26T04:59:59.370Z,22.80
2018-03-26T05:02:27.692Z,23.13
2018-03-26T05:04:55.264Z,22.40
2018-03-26T05:07:22.860Z,22.20
2018-03-26T05:09:51.191Z,22.93
2018-03-26T05:12:18.760Z,24.40
2018-03-26T05:14:46.343Z,23.20
2018-03-26T05:17:13.917Z,23.17
2018-03-26T05:19:42.239Z,23.30
2018-03-26T05:22:09.844Z,21.77
2018-03-26T05:24:38.174Z,24.53
2018-03-26T05:27:05.749Z,24.67
2018-03-26T05:29:33.404Z,22.80
2018-03-26T05:32:01.010Z,25.30
2018-03-26T05:34:29.336Z,25.20
2018-03-26T05:36:56.904Z,26.13
2018-03-26T05:39:24.452Z,23.90
2018-03-26T05:41:52.024Z,24.57
2018-03-26T05:44:19.598Z,25.20
2018-03-26T05:46:47.163Z,25.53
2018-03-26T05:49:14.721Z,26.13
2018-03-26T05:51:42.333Z,25.97
2018-03-26T05:54:09.902Z,28.17
2018-03-26T05:56:37.460Z,26.77
2018-03-26T05:59:05.090Z,27.20
2018-03-26T06:01:32.653Z,28.00
2018-03-26T06:04:00.232Z,28.87
2018-03-26T06:06:28.591Z,29.30
2018-03-26T06:08:56.149Z,28.80
2018-03-26T06:11:23.699Z,27.53
2018-03-26T06:13:51.290Z,30.83
2018-03-26T06:16:19.634Z,32.17
2018-03-26T06:18:48.711Z,31.17
2018-03-26T06:21:16.298Z,31.90
2018-03-26T06:23:43.865Z,31.07
2018-03-26T06:26:11.450Z,32.63
2018-03-26T06:28:39.824Z,32.93
2018-03-26T06:31:08.160Z,32.93
2018-03-26T06:33:35.765Z,33.20
2018-03-26T06:36:04.115Z,33.93
2018-03-26T06:38:38.319Z,32.17
2018-03-26T06:41:05.944Z,32.37
2018-03-26T06:43:33.522Z,33.20
2018-03-26T06:46:01.084Z,35.00
2018-03-26T06:48:28.670Z,32.80
2018-03-26T06:50:56.287Z,32.57
2018-03-26T06:53:23.882Z,33.10
2018-03-26T06:55:51.517Z,34.37
2018-03-26T06:58:19.168Z,32.57
2018-03-26T07:00:46.770Z,33.97
2018-03-26T07:03:14.412Z,35.70
2018-03-26T07:05:41.992Z,34.33
2018-03-26T07:08:09.551Z,33.80
2018-03-26T07:10:37.586Z,33.07
2018-03-26T07:13:05.612Z,32.40
2018-03-26T07:15:33.477Z,33.10
2018-03-26T07:18:01.532Z,35.77
2018-03-26T07:20:29.084Z,34.57
2018-03-26T07:22:56.659Z,33.73
2018-03-26T07:25:24.311Z,35.10
2018-03-26T07:27:52.792Z,33.83
2018-03-26T07:30:20.340Z,34.73
2018-03-26T07:32:47.959Z,34.00
2018-03-26T07:35:16.340Z,32.03
2018-03-26T07:37:44.662Z,32.83
2018-03-26T07:40:15.320Z,34.60
2018-03-26T07:42:47.100Z,33.40
2018-03-26T07:45:15.463Z,35.10
2018-03-26T07:47:43.966Z,34.40
2018-03-26T07:50:12.321Z,34.40
2018-03-26T07:52:40.057Z,33.87
2018-03-26T07:55:07.653Z,33.00
2018-03-26T07:57:35.226Z,33.13
2018-03-26T08:00:02.891Z,33.70
2018-03-26T08:02:30.489Z,33.80
2018-03-26T08:04:58.073Z,34.70
2018-03-26T08:07:25.643Z,30.97
2018-03-26T08:09:53.238Z,31.70
2018-03-26T08:12:21.612Z,34.47
2018-03-26T08:14:49.208Z,31.10
2018-03-26T08:17:16.787Z,33.57
2018-03-26T08:19:44.387Z,33.13
2018-03-26T08:22:11.975Z,32.83
2018-03-26T08:24:39.543Z,32.60
2018-03-26T08:27:07.125Z,33.70
2018-03-26T08:29:34.754Z,33.53
2018-03-26T08:32:03.080Z,34.50
2018-03-26T08:34:30.664Z,34.40
2018-03-26T08:36:59.036Z,32.47
2018-03-26T08:39:26.600Z,32.77
2018-03-26T08:41:54.166Z,31.60
2018-03-26T08:44:21.744Z,34.00
2018-03-26T08:46:56.252Z,34.00
2018-03-26T08:49:23.846Z,34.40
2018-03-26T08:51:51.400Z,32.57
2018-03-26T08:54:19.724Z,32.90
2018-03-26T08:56:47.298Z,34.27
2018-03-26T08:59:15.810Z,34.30
2018-03-26T09:01:44.149Z,33.63
2018-03-26T09:04:17.466Z,32.47
2018-03-26T09:06:45.033Z,31.80
2018-03-26T09:09:12.596Z,34.30
2018-03-26T09:11:40.992Z,34.90
2018-03-26T09:14:09.332Z,33.70
2018-03-26T09:16:36.936Z,33.67
2018-03-26T09:19:08.435Z,33.40
2018-03-26T09:21:35.987Z,33.00
2018-03-26T09:24:03.552Z,33.10
2018-03-26T09:26:31.138Z,33.57
2018-03-26T09:28:58.696Z,35.20
2018-03-26T09:31:26.255Z,33.13
2018-03-26T09:33:53.837Z,34.30
2018-03-26T09:36:22.178Z,33.37
2018-03-26T09:38:49.804Z,34.07
2018-03-26T09:41:17.419Z,34.20
2018-03-26T09:43:45.803Z,34.67
2018-03-26T09:46:13.365Z,31.70
2018-03-26T09:48:40.963Z,32.70
2018-03-26T09:51:08.512Z,33.33
2018-03-26T09:53:36.844Z,32.43
2018-03-26T09:56:04.423Z,33.70
2018-03-26T09:58:31.981Z,33.63
2018-03-26T10:01:02.415Z,33.60
2018-03-26T10:03:30.022Z,34.50
2018-03-26T10:05:57.572Z,34.60
2018-03-26T10:08:25.134Z,34.80
2018-03-26T10:10:52.734Z,34.10
2018-03-26T10:13:20.305Z,32.53
2018-03-26T10:15:47.931Z,33.60
2018-03-26T10:18:16.447Z,34.03
2018-03-26T10:20:45.705Z,34.13
2018-03-26T10:23:13.267Z,35.00
2018-03-26T10:25:40.858Z,33.97
2018-03-26T10:28:08.493Z,32.67
2018-03-26T10:30:36.053Z,35.40
2018-03-26T10:33:03.650Z,33.60
2018-03-26T10:35:32.160Z,33.50
2018-03-26T10:38:00.488Z,33.13
2018-03-26T10:40:28.124Z,34.10
2018-03-26T10:42:55.705Z,33.33
2018-03-26T10:45:23.320Z,34.20
2018-03-26T10:47:50.924Z,33.47
2018-03-26T10:50:19.333Z,35.00
2018-03-26T10:52:46.896Z,34.80
2018-03-26T10:55:14.475Z,34.30
2018-03-26T10:57:42.048Z,34.00
2018-03-26T11:00:10.381Z,33.97
2018-03-26T11:02:37.975Z,35.73
2018-03-26T11:05:05.527Z,33.23
2018-03-26T11:07:33.089Z,34.60
2018-03-26T11:10:00.672Z,35.57
2018-03-26T11:12:29.017Z,34.43
2018-03-26T11:14:56.615Z,34.97
2018-03-26T11:17:24.223Z,35.40
2018-03-26T11:19:51.879Z,35.87
2018-03-26T11:22:21.683Z,33.77
2018-03-26T11:24:49.387Z,35.23
2018-03-26T11:27:16.980Z,31.83
2018-03-26T11:29:45.537Z,32.60
2018-03-26T11:32:13.153Z,33.80
2018-03-26T11:34:41.715Z,34.47
2018-03-26T11:37:22.528Z,33.57
2018-03-26T11:39:50.086Z,34.37
2018-03-26T11:42:18.410Z,36.10
2018-03-26T11:44:46.075Z,35.57
2018-03-26T11:47:14.393Z,35.23
2018-03-26T11:49:41.985Z,33.97
2018-03-26T11:52:09.544Z,35.20
2018-03-26T11:54:37.147Z,34.47
2018-03-26T11:57:05.476Z,33.00
2018-03-26T11:59:33.080Z,34.30
2018-03-26T12:02:03.399Z,33.00
2018-03-26T12:04:30.967Z,33.33
2018-03-26T12:07:00.259Z,33.00
2018-03-26T12:09:28.596Z,35.80
2018-03-26T12:11:56.930Z,33.53
2018-03-26T12:14:28.265Z,32.73
2018-03-26T12:16:56.600Z,33.97
2018-03-26T12:19:25.750Z,32.37
2018-03-26T12:21:54.112Z,33.27
2018-03-26T12:24:33.385Z,32.57
2018-03-26T12:27:00.973Z,32.50
2018-03-26T12:29:40.359Z,31.70
2018-03-26T12:32:08.762Z,31.87
2018-03-26T12:34:47.952Z,31.63
2018-03-26T12:37:15.600Z,32.63
2018-03-26T12:39:43.163Z,32.97
2018-03-26T12:42:10.752Z,33.97
2018-03-26T12:44:50.918Z,32.73
2018-03-26T12:47:19.269Z,31.90
2018-03-26T12:49:47.709Z,29.53
2018-03-26T12:52:28.017Z,31.30
2018-03-26T12:54:55.625Z,31.77
2018-03-26T12:57:35.114Z,32.20
2018-03-26T13:00:03.485Z,32.73
2018-03-26T13:02:31.100Z,31.03
2018-03-26T13:04:58.804Z,29.27
2018-03-26T13:07:26.365Z,31.50
2018-03-26T13:09:53.935Z,34.43
2018-03-26T13:12:21.520Z,31.77
2018-03-26T13:14:49.844Z,31.90
2018-03-26T13:17:17.432Z,31.93
2018-03-26T13:19:52.946Z,32.40
2018-03-26T13:22:20.507Z,32.77
2018-03-26T13:24:48.068Z,34.87
2018-03-26T13:27:15.665Z,33.87
2018-03-26T13:29:43.224Z,34.43
2018-03-26T13:32:10.771Z,31.83
2018-03-26T13:34:38.371Z,32.80
2018-03-26T13:37:06.772Z,32.92
2018-03-26T13:39:34.346Z,31.83
2018-03-26T13:42:01.936Z,33.53
2018-03-26T13:44:29.504Z,33.20
2018-03-26T13:46:57.069Z,33.83
2018-03-26T13:49:24.655Z,34.57
2018-03-26T13:51:53.037Z,33.20
2018-03-26T13:54:21.411Z,34.13
2018-03-26T13:56:49.777Z,33.53
2018-03-26T13:59:18.210Z,32.47
2018-03-26T14:01:45.772Z,33.80
2018-03-26T14:04:13.400Z,33.80
2018-03-26T14:06:41.741Z,34.83
2018-03-26T14:09:21.239Z,34.50
2018-03-26T14:15:03.561Z,32.30
2018-03-26T14:17:42.884Z,31.57
2018-03-26T14:20:11.231Z,32.77
2018-03-26T14:22:38.798Z,33.53
2018-03-26T14:25:06.339Z,31.97
2018-03-26T14:27:33.971Z,34.13
2018-03-26T14:30:01.527Z,34.00
2018-03-26T14:32:29.122Z,33.27
2018-03-26T14:35:08.536Z,33.47
2018-03-26T14:37:36.085Z,33.30
2018-03-26T14:40:03.669Z,33.57
2018-03-26T14:42:31.251Z,32.47
2018-03-26T14:44:58.816Z,32.37
2018-03-26T14:47:26.362Z,31.07
2018-03-26T14:49:53.991Z,29.87
2018-03-26T14:52:21.559Z,30.43
2018-03-26T14:54:49.104Z,31.23
2018-03-26T14:57:16.682Z,30.87
2018-03-26T14:59:44.271Z,30.97
2018-03-26T15:02:11.834Z,31.20
2018-03-26T15:04:39.415Z,32.13
2018-03-26T15:07:07.762Z,31.90
2018-03-26T15:09:35.331Z,31.47
2018-03-26T15:12:02.929Z,31.27
2018-03-26T15:14:31.255Z,31.33
2018-03-26T15:16:58.841Z,31.53
2018-03-26T15:19:26.467Z,30.70
2018-03-26T15:21:54.033Z,29.43
2018-03-26T15:24:21.637Z,31.03
2018-03-26T15:26:49.980Z,29.87
2018-03-26T15:29:17.542Z,30.13
2018-03-26T15:31:45.116Z,30.33
2018-03-26T15:34:12.714Z,27.90
2018-03-26T15:36:42.304Z,28.67
2018-03-26T15:39:11.545Z,30.57
2018-03-26T15:41:39.110Z,29.83
2018-03-26T15:44:06.668Z,29.00
2018-03-26T15:46:34.233Z,30.50
2018-03-26T15:49:01.844Z,29.00
2018-03-26T15:51:30.182Z,29.40
2018-03-26T15:53:57.757Z,28.40
2018-03-26T15:56:25.331Z,29.13
2018-03-26T15:58:52.886Z,27.70
2018-03-26T16:01:20.451Z,30.97
2018-03-26T16:03:48.053Z,30.00
2018-03-26T16:06:15.636Z,30.90
2018-03-26T16:08:43.197Z,29.37
2018-03-26T16:11:11.822Z,30.50
2018-03-26T16:13:39.388Z,30.70
2018-03-26T16:16:07.088Z,29.60
2018-03-26T16:18:34.695Z,30.60
2018-03-26T16:21:02.276Z,30.23
2018-03-26T16:23:29.837Z,30.17
2018-03-26T16:25:58.232Z,30.23
2018-03-26T16:28:26.561Z,30.93
2018-03-26T16:30:54.145Z,29.97
2018-03-26T16:33:21.734Z,29.90
2018-03-26T16:35:50.070Z,31.40
2018-03-26T16:38:18.644Z,30.17
2018-03-26T16:40:46.290Z,29.37
2018-03-26T16:43:14.912Z,28.27
2018-03-26T16:45:42.510Z,30.87
2018-03-26T16:48:10.106Z,31.57
2018-03-26T16:50:37.732Z,31.20
2018-03-26T16:53:06.047Z,31.97
2018-03-26T16:55:33.685Z,32.23
2018-03-26T16:58:02.070Z,30.83
2018-03-26T17:00:29.636Z,29.80
2018-03-26T17:02:57.214Z,32.53
2018-03-26T17:05:26.143Z,32.05
2018-03-26T17:07:54.473Z,31.10
2018-03-26T17:10:22.062Z,31.73
2018-03-26T17:12:49.612Z,31.13
2018-03-26T17:15:17.200Z,31.23
2018-03-26T17:17:44.794Z,31.20
2018-03-26T17:20:12.356Z,30.73
2018-03-26T17:22:39.934Z,30.80
2018-03-26T17:25:07.525Z,32.23
2018-03-26T17:27:35.083Z,30.77
2018-03-26T17:30:02.639Z,31.30
2018-03-26T17:32:38.275Z,31.47
2018-03-26T17:35:05.877Z,33.10
2018-03-26T17:37:34.235Z,31.30
2018-03-26T17:40:01.857Z,30.77
2018-03-26T17:42:29.418Z,30.90
2018-03-26T17:44:56.975Z,31.90
2018-03-26T17:47:24.572Z,30.17
2018-03-26T17:49:52.181Z,33.70
2018-03-26T17:52:19.751Z,32.60
2018-03-26T17:54:47.352Z,31.30
2018-03-26T17:57:14.917Z,31.70
2018-03-26T17:59:42.474Z,33.00
2018-03-26T18:02:10.048Z,33.93
2018-03-26T18:04:37.622Z,33.27
2018-03-26T18:07:06.545Z,33.40
2018-03-26T18:09:35.043Z,32.80
2018-03-26T18:12:02.613Z,34.17
2018-03-26T18:14:30.164Z,34.37
2018-03-26T18:16:58.683Z,35.47
2018-03-26T18:19:26.232Z,33.53
2018-03-26T18:21:53.797Z,33.30
2018-03-26T18:24:22.202Z,35.00
2018-03-26T18:26:49.757Z,33.37
2018-03-26T18:29:18.401Z,33.90
2018-03-26T18:31:45.979Z,33.20
2018-03-26T18:34:14.030Z,34.63
2018-03-26T18:36:41.760Z,32.23
2018-03-26T18:39:10.129Z,33.60
2018-03-26T18:41:59.401Z,33.23
2018-03-26T18:44:28.553Z,32.77
2018-03-26T18:46:56.231Z,33.87
2018-03-26T18:49:24.712Z,34.60
2018-03-26T18:51:52.331Z,35.40
2018-03-26T18:54:20.655Z,32.07
2018-03-26T18:56:48.205Z,33.77
2018-03-26T18:59:16.807Z,35.97
2018-03-26T19:01:44.392Z,43.70
2018-03-26T19:04:11.995Z,42.67
2018-03-26T19:06:40.396Z,40.63
2018-03-26T19:09:07.956Z,39.83
2018-03-26T19:11:36.497Z,39.17
2018-03-26T19:14:04.200Z,40.90
2018-03-26T19:16:32.582Z,41.50
2018-03-26T19:19:00.137Z,39.60
2018-03-26T19:21:27.757Z,37.57
2018-03-26T19:23:58.857Z,37.60
2018-03-26T19:26:26.424Z,36.67
2018-03-26T19:28:54.015Z,34.43
2018-03-26T19:31:22.350Z,34.37
2018-03-26T19:33:49.924Z,35.10
2018-03-26T19:36:17.511Z,33.77
2018-03-26T19:38:45.868Z,31.97
2018-03-26T19:41:13.448Z,34.80
2018-03-26T19:43:42.681Z,34.67
2018-03-26T19:46:10.248Z,34.93
2018-03-26T19:48:37.817Z,37.30
2018-03-26T19:51:05.403Z,35.87
2018-03-26T19:53:32.976Z,43.17
2018-03-26T19:56:00.624Z,42.57
2018-03-26T19:58:28.248Z,41.97
2018-03-26T20:00:55.809Z,40.90
2018-03-26T20:03:23.370Z,39.37
2018-03-26T20:05:51.031Z,37.30
2018-03-26T20:08:18.604Z,34.50
2018-03-26T20:10:46.269Z,36.53
2018-03-26T20:13:13.849Z,35.73
2018-03-26T20:15:41.453Z,38.00
2018-03-26T20:18:09.038Z,35.23
2018-03-26T20:20:36.642Z,35.53
2018-03-26T20:23:04.271Z,37.40
2018-03-26T20:25:32.456Z,34.83
2018-03-26T20:28:00.037Z,34.40
2018-03-26T20:30:27.590Z,34.60
2018-03-26T20:32:55.159Z,33.80
2018-03-26T20:35:22.823Z,34.97
2018-03-26T20:37:50.398Z,33.23
2018-03-26T20:40:17.977Z,33.50
2018-03-26T20:42:45.558Z,33.73
2018-03-26T20:45:13.123Z,35.80
2018-03-26T20:47:40.709Z,34.33
2018-03-26T20:50:08.308Z,36.57
2018-03-26T20:52:36.633Z,35.00
2018-03-26T20:55:04.915Z,35.67
2018-03-26T20:57:32.463Z,34.40
2018-03-26T21:00:00.045Z,35.93
2018-03-26T21:02:27.645Z,37.37
2018-03-26T21:04:55.234Z,37.67
2018-03-26T21:07:22.805Z,37.53
2018-03-26T21:09:50.367Z,37.33
2018-03-26T21:12:17.955Z,38.50
2018-03-26T21:14:45.558Z,37.80
2018-03-26T21:17:13.983Z,37.83
2018-03-26T21:19:41.570Z,37.50
2018-03-26T21:22:09.136Z,39.20
2018-03-26T21:24:36.690Z,39.97
2018-03-26T21:27:05.061Z,38.63
2018-03-26T21:29:32.619Z,37.40
2018-03-26T21:32:00.177Z,40.37
2018-03-26T21:34:27.768Z,39.73
2018-03-26T21:36:56.085Z,38.33
2018-03-26T21:39:23.652Z,40.07
2018-03-26T21:41:51.993Z,39.10
2018-03-26T21:44:20.327Z,40.27
2018-03-26T21:46:47.883Z,40.70
2018-03-26T21:49:15.482Z,40.20
2018-03-26T21:51:43.047Z,40.67
2018-03-26T21:54:11.371Z,41.10
2018-03-26T21:56:38.947Z,39.50
2018-03-26T21:59:06.502Z,41.10
2018-03-26T22:01:34.068Z,40.10
2018-03-26T22:04:01.647Z,39.67
2018-03-26T22:06:29.212Z,39.30
2018-03-26T22:08:56.796Z,39.27
2018-03-26T22:11:25.138Z,39.20
2018-03-26T22:13:52.690Z,38.60
2018-03-26T22:16:20.245Z,37.20
2018-03-26T22:18:47.836Z,36.93
2018-03-26T22:21:15.411Z,35.30
2018-03-26T22:23:43.012Z,35.30
2018-03-26T22:26:10.589Z,36.87
2018-03-26T22:28:38.149Z,33.47
2018-03-26T22:31:05.705Z,35.77
2018-03-26T22:33:33.277Z,37.20
2018-03-26T22:36:00.893Z,34.20
2018-03-26T22:38:28.435Z,36.30
2018-03-26T22:40:56.774Z,36.27
2018-03-26T22:43:24.340Z,35.27
2018-03-26T22:46:04.701Z,35.20
2018-03-26T22:48:32.256Z,34.70
2018-03-26T22:50:59.854Z,36.20
2018-03-26T22:53:28.199Z,35.60
2018-03-26T22:55:55.773Z,37.00
2018-03-26T22:58:23.324Z,36.10
2018-03-26T23:00:50.920Z,36.50
2018-03-26T23:03:18.492Z,35.20
2018-03-26T23:05:46.051Z,36.67
2018-03-26T23:08:13.641Z,38.37
2018-03-26T23:10:47.709Z,38.50
2018-03-26T23:13:16.060Z,38.47
2018-03-26T23:15:45.290Z,38.23
2018-03-26T23:18:13.611Z,41.13
2018-03-26T23:20:41.206Z,38.00
2018-03-26T23:23:08.780Z,37.73
2018-03-26T23:25:37.098Z,39.47
2018-03-26T23:28:04.701Z,37.07
2018-03-26T23:30:32.270Z,40.23
2018-03-26T23:32:59.833Z,42.10
2018-03-26T23:35:27.441Z,41.10
2018-03-26T23:37:55.009Z,41.00
2018-03-26T23:40:22.565Z,40.90
2018-03-26T23:42:50.151Z,44.30
2018-03-26T23:45:17.708Z,42.30
2018-03-26T23:47:46.726Z,43.92
2018-03-26T23:50:15.353Z,39.47
2018-03-26T23:52:42.907Z,45.07
2018-03-26T23:55:10.457Z,44.40
2018-03-26T23:57:38.808Z,45.27
